Time;durP1;ratioP1;P1;durP2;ratioP2;P2;SDS_P1;SDS_P2;PMS_P1;PMS_P2;Temp;Humidity;BMP_temperature;BMP_pressure;BME280_temperature;BME280_humidity;BME280_pressure;Samples;Min_cycle;Max_cycle;Signal;HPM_P1;HPM_P2
2021/07/05 00:03:45;;;;;;;1.43;1.33;;;19.60;43.70;;;;;;10456384;28;20240;-68
2021/07/05 00:08:48;;;;;;;2.53;1.50;;;19.60;44.00;;;;;;10455868;28;20241;-68
2021/07/05 00:13:51;;;;;;;1.60;1.50;;;19.60;43.50;;;;;;10452965;28;20228;-68
2021/07/05 00:18:55;;;;;;;1.30;1.20;;;19.60;43.50;;;;;;10461110;28;20239;-68
2021/07/05 00:23:59;;;;;;;2.47;1.37;;;19.60;44.80;;;;;;10452333;28;20860;-68
2021/07/05 00:29:02;;;;;;;1.50;1.40;;;19.50;43.60;;;;;;10452078;28;20697;-70
2021/07/05 00:34:06;;;;;;;1.40;1.30;;;19.60;43.70;;;;;;10455119;28;20712;-68
2021/07/05 00:39:10;;;;;;;1.50;1.40;;;19.50;44.10;;;;;;10451946;28;20310;-68
2021/07/05 00:44:13;;;;;;;1.97;1.43;;;19.50;43.80;;;;;;10451567;28;20234;-68
2021/07/05 00:49:18;;;;;;;1.40;1.30;;;19.50;43.80;;;;;;10454155;28;20244;-68
2021/07/05 00:54:21;;;;;;;1.50;1.40;;;19.50;44.30;;;;;;10445777;28;20233;-68
2021/07/05 00:59:25;;;;;;;1.37;1.23;;;19.40;43.90;;;;;;10452025;28;20236;-68
2021/07/05 01:04:30;;;;;;;1.50;1.40;;;19.40;44.50;;;;;;10453135;28;20237;-68
2021/07/05 01:09:33;;;;;;;1.43;1.33;;;19.40;44.50;;;;;;10446622;28;20708;-68
2021/07/05 01:14:37;;;;;;;1.53;1.40;;;19.30;44.00;;;;;;10452552;28;20232;-68
2021/07/05 01:19:43;;;;;;;1.70;1.20;;;19.40;44.20;;;;;;10448797;28;20240;-68
2021/07/05 01:24:49;;;;;;;1.40;1.30;;;19.30;44.60;;;;;;10455546;28;20236;-68
2021/07/05 01:29:52;;;;;;;2.03;1.10;;;19.30;44.60;;;;;;10449147;28;20239;-68
2021/07/05 01:34:56;;;;;;;3.03;1.30;;;19.30;44.00;;;;;;10453125;28;20228;-68
2021/07/05 01:40:01;;;;;;;2.83;1.50;;;19.20;43.90;;;;;;10447864;28;20241;-68
2021/07/05 01:45:05;;;;;;;6.97;1.30;;;19.20;44.40;;;;;;10458362;28;20235;-68
2021/07/05 01:50:09;;;;;;;2.40;1.20;;;19.10;44.00;;;;;;10443990;28;20227;-68
2021/07/05 01:55:14;;;;;;;1.90;1.10;;;19.10;44.20;;;;;;10448661;28;20218;-68
2021/07/05 02:00:20;;;;;;;1.20;1.10;;;19.10;44.70;;;;;;10446570;28;20229;-68
2021/07/05 02:05:24;;;;;;;1.97;1.50;;;19.10;44.80;;;;;;10444313;28;20306;-68
2021/07/05 02:10:30;;;;;;;3.00;1.30;;;19.10;44.40;;;;;;10453101;28;20229;-68
2021/07/05 02:15:33;;;;;;;1.03;0.93;;;19.10;44.80;;;;;;10457904;28;20224;-68
2021/07/05 02:20:37;;;;;;;2.07;0.90;;;19.10;44.30;;;;;;10447727;28;20255;-68
2021/07/05 02:25:43;;;;;;;1.53;0.90;;;19.20;44.20;;;;;;10449999;28;20240;-68
2021/07/05 02:30:48;;;;;;;1.77;1.07;;;19.20;44.50;;;;;;10451490;28;20236;-68
2021/07/05 02:35:52;;;;;;;2.53;1.00;;;19.20;44.20;;;;;;10445882;28;20225;-68
2021/07/05 02:40:57;;;;;;;2.00;1.17;;;19.20;43.80;;;;;;10440857;28;20224;-68
2021/07/05 02:46:00;;;;;;;1.70;1.20;;;19.10;44.10;;;;;;10450533;28;20233;-68
2021/07/05 02:51:06;;;;;;;3.47;1.10;;;19.10;43.80;;;;;;10447788;28;20228;-69
2021/07/05 02:56:11;;;;;;;1.73;1.17;;;19.00;44.30;;;;;;10448383;28;20252;-68
2021/07/05 03:01:14;;;;;;;2.10;1.00;;;18.90;44.40;;;;;;10449808;28;20686;-68
2021/07/05 03:06:17;;;;;;;1.73;1.37;;;18.90;44.10;;;;;;10448722;28;20228;-68
2021/07/05 03:11:22;;;;;;;2.53;1.00;;;18.80;44.20;;;;;;10447080;28;20224;-68
2021/07/05 03:16:25;;;;;;;0.93;0.87;;;18.80;44.70;;;;;;10456430;28;20578;-68
2021/07/05 03:21:28;;;;;;;2.90;1.20;;;18.80;44.30;;;;;;10443855;28;20275;-68
2021/07/05 03:26:32;;;;;;;1.43;1.20;;;18.80;44.40;;;;;;10449466;28;20240;-68
2021/07/05 03:31:35;;;;;;;3.10;1.30;;;18.80;44.80;;;;;;10447093;28;20229;-68
2021/07/05 03:36:39;;;;;;;3.63;1.10;;;18.80;44.30;;;;;;10443636;28;20244;-68
2021/07/05 03:41:44;;;;;;;2.47;1.00;;;18.70;44.50;;;;;;10447323;28;20231;-68
2021/07/05 03:46:47;;;;;;;2.43;1.30;;;18.70;44.70;;;;;;10444770;28;20244;-68
2021/07/05 03:51:51;;;;;;;2.53;1.10;;;18.80;44.50;;;;;;10451677;28;20255;-68
2021/07/05 03:56:56;;;;;;;1.63;1.23;;;18.80;44.30;;;;;;10445598;28;20236;-68
2021/07/05 04:01:59;;;;;;;1.83;1.03;;;18.70;44.50;;;;;;10441405;28;20221;-68
2021/07/05 04:07:02;;;;;;;2.67;1.00;;;18.70;44.30;;;;;;10445961;28;20225;-69
2021/07/05 04:12:08;;;;;;;3.70;1.13;;;18.70;44.40;;;;;;10458720;28;20236;-68
2021/07/05 04:17:11;;;;;;;1.53;0.93;;;18.80;44.90;;;;;;10457307;28;20232;-68
2021/07/05 04:22:16;;;;;;;1.60;1.10;;;18.80;44.60;;;;;;10452830;28;20224;-68
2021/07/05 04:27:20;;;;;;;1.60;0.93;;;18.80;44.80;;;;;;10461032;28;20224;-68
2021/07/05 04:32:23;;;;;;;2.63;1.20;;;18.70;45.20;;;;;;10444014;28;20221;-68
2021/07/05 04:37:26;;;;;;;2.73;0.90;;;18.70;44.70;;;;;;10450682;28;20221;-68
2021/07/05 04:42:31;;;;;;;3.27;1.03;;;18.70;44.90;;;;;;10455617;28;20902;-68
2021/07/05 04:47:34;;;;;;;2.60;1.10;;;18.70;46.10;;;;;;10459203;28;20603;-68
2021/07/05 04:52:38;;;;;;;2.33;1.30;;;18.70;45.30;;;;;;10451690;28;20934;-68
2021/07/05 04:57:45;;;;;;;4.30;1.73;;;18.70;45.30;;;;;;10452907;28;20240;-68
2021/07/05 05:02:49;;;;;;;3.67;1.10;;;18.70;46.10;;;;;;10451541;28;20251;-68
2021/07/05 05:07:53;;;;;;;1.87;1.20;;;18.70;45.90;;;;;;10458719;28;20225;-68
2021/07/05 05:12:57;;;;;;;1.97;1.10;;;18.80;46.10;;;;;;10452079;28;20228;-68
2021/07/05 05:18:01;;;;;;;4.00;1.13;;;18.90;46.70;;;;;;10451939;28;20373;-68
2021/07/05 05:23:04;;;;;;;1.33;1.10;;;19.10;46.40;;;;;;10444869;28;20234;-68
2021/07/05 05:28:09;;;;;;;1.50;1.40;;;19.30;46.50;;;;;;10453261;28;20617;-68
2021/07/05 05:33:12;;;;;;;2.10;1.30;;;19.40;47.10;;;;;;10453172;28;20231;-68
2021/07/05 05:38:15;;;;;;;1.23;1.13;;;19.60;46.70;;;;;;10453743;28;20673;-68
2021/07/05 05:43:19;;;;;;;2.50;1.10;;;19.70;46.80;;;;;;10451956;28;20239;-68
2021/07/05 05:48:23;;;;;;;3.43;1.53;;;19.80;46.90;;;;;;10450735;28;20233;-68
2021/07/05 05:53:26;;;;;;;1.10;1.00;;;20.00;46.60;;;;;;10451579;28;20221;-67
2021/07/05 05:58:35;;;;;;;1.47;1.23;;;20.10;46.50;;;;;;10446741;28;20231;-68
2021/07/05 06:03:38;;;;;;;1.70;1.20;;;20.20;46.80;;;;;;10452222;28;20255;-68
2021/07/05 06:08:41;;;;;;;1.00;1.00;;;20.40;46.80;;;;;;10448663;28;20244;-68
2021/07/05 06:13:45;;;;;;;1.70;1.20;;;20.50;46.50;;;;;;10447607;28;20240;-68
2021/07/05 06:18:49;;;;;;;2.63;0.90;;;20.60;46.90;;;;;;10448212;28;20233;-68
2021/07/05 06:23:52;;;;;;;1.37;1.20;;;20.80;46.80;;;;;;10452164;28;20233;-68
2021/07/05 06:28:56;;;;;;;1.20;1.10;;;21.10;46.90;;;;;;10452661;28;20232;-68
2021/07/05 06:34:00;;;;;;;1.37;1.20;;;21.30;46.60;;;;;;10448671;28;20244;-68
2021/07/05 06:39:03;;;;;;;1.13;1.10;;;21.50;45.90;;;;;;10449183;28;20238;-68
2021/07/05 06:44:08;;;;;;;1.30;1.20;;;21.60;45.20;;;;;;10453915;28;20243;-69
2021/07/05 06:49:16;;;;;;;1.80;1.27;;;21.70;44.90;;;;;;10452262;28;20229;-68
2021/07/05 06:54:20;;;;;;;1.20;1.10;;;21.80;45.30;;;;;;10452025;28;20216;-68
2021/07/05 06:59:24;;;;;;;1.67;1.30;;;21.90;44.70;;;;;;10455505;28;20243;-68
2021/07/05 07:04:27;;;;;;;1.10;1.10;;;22.00;44.60;;;;;;10442566;28;20237;-68
2021/07/05 07:09:31;;;;;;;2.07;1.20;;;22.10;44.80;;;;;;10451891;28;20266;-68
2021/07/05 07:14:35;;;;;;;1.70;1.00;;;22.20;44.50;;;;;;10452399;28;20877;-68
2021/07/05 07:19:39;;;;;;;1.50;1.10;;;22.40;43.90;;;;;;10450423;28;20603;-68
2021/07/05 07:24:43;;;;;;;1.87;1.03;;;22.50;44.70;;;;;;10455892;28;20236;-68
2021/07/05 07:29:48;;;;;;;1.63;1.30;;;22.70;44.30;;;;;;10458137;28;20232;-68
2021/07/05 07:34:51;;;;;;;1.37;1.10;;;22.90;43.30;;;;;;10451285;28;20851;-68
2021/07/05 07:39:58;;;;;;;1.13;1.10;;;23.00;43.50;;;;;;10447052;28;20224;-68
2021/07/05 07:45:02;;;;;;;1.07;1.00;;;23.10;43.30;;;;;;10456404;28;20656;-68
2021/07/05 07:50:08;;;;;;;1.10;1.10;;;23.30;42.10;;;;;;10459141;28;20587;-68
2021/07/05 07:55:13;;;;;;;1.10;1.10;;;23.30;41.80;;;;;;10460793;28;20233;-68
2021/07/05 08:00:18;;;;;;;1.60;1.30;;;23.40;41.80;;;;;;10454490;28;20312;-68
2021/07/05 08:05:21;;;;;;;1.00;1.00;;;23.40;41.50;;;;;;10450420;28;20227;-68
2021/07/05 08:10:24;;;;;;;1.20;1.20;;;23.50;42.20;;;;;;10463617;28;20248;-68
2021/07/05 08:15:29;;;;;;;1.47;1.10;;;23.50;42.30;;;;;;10463098;28;20224;-68
2021/07/05 08:20:32;;;;;;;1.30;1.30;;;23.60;41.70;;;;;;10460397;28;20751;-68
2021/07/05 08:25:36;;;;;;;1.20;1.10;;;23.70;41.70;;;;;;10456968;28;20240;-68
2021/07/05 08:30:40;;;;;;;1.40;1.30;;;23.80;41.70;;;;;;10452495;28;20316;-68
2021/07/05 08:35:43;;;;;;;1.30;1.20;;;23.90;41.10;;;;;;10448209;28;20593;-68
2021/07/05 08:40:47;;;;;;;0.90;0.90;;;24.10;41.60;;;;;;10454113;28;20232;-68
2021/07/05 08:45:54;;;;;;;1.13;1.13;;;24.20;40.90;;;;;;10453612;28;20611;-68
2021/07/05 08:50:59;;;;;;;1.33;1.20;;;24.40;40.40;;;;;;10445822;28;20271;-68
2021/07/05 08:56:02;;;;;;;1.07;1.07;;;24.40;40.40;;;;;;10452275;28;20250;-68
2021/07/05 09:01:09;;;;;;;1.97;1.20;;;24.50;40.50;;;;;;10457114;28;20254;-68
2021/07/05 09:06:14;;;;;;;1.30;1.20;;;24.70;39.70;;;;;;10449665;28;20229;-68
2021/07/05 09:11:19;;;;;;;1.30;1.20;;;24.70;40.00;;;;;;10455972;28;20220;-68
2021/07/05 09:16:32;;;;;;;1.37;1.30;;;24.80;39.70;;;;;;10448944;28;20232;-68
2021/07/05 09:21:35;;;;;;;1.17;1.00;;;24.90;39.20;;;;;;10450589;28;20224;-68
2021/07/05 09:26:40;;;;;;;1.43;1.33;;;25.00;39.50;;;;;;10455964;28;20240;-68
2021/07/05 09:31:47;;;;;;;1.07;1.07;;;25.10;39.00;;;;;;10447709;28;20232;-68
2021/07/05 09:36:52;;;;;;;1.40;1.30;;;25.20;38.60;;;;;;10448841;28;20239;-68
2021/07/05 09:41:56;;;;;;;0.97;0.90;;;25.20;38.90;;;;;;10449758;28;20607;-68
2021/07/05 09:47:02;;;;;;;1.13;1.13;;;25.30;38.90;;;;;;10445375;28;20248;-68
2021/07/05 09:52:12;;;;;;;2.63;1.20;;;25.30;37.70;;;;;;10445413;28;20221;-68
2021/07/05 09:57:29;;;;;;;1.20;1.20;;;25.30;37.70;;;;;;10444172;28;20228;-68
2021/07/05 10:02:34;;;;;;;1.20;1.10;;;25.30;38.70;;;;;;10443607;28;20618;-68
2021/07/05 10:07:37;;;;;;;1.00;1.00;;;25.40;38.00;;;;;;10452959;28;20232;-68
2021/07/05 10:12:49;;;;;;;1.70;1.20;;;25.40;38.30;;;;;;10458293;28;20225;-68
2021/07/05 10:17:55;;;;;;;1.53;1.43;;;25.60;38.40;;;;;;10449888;28;20580;-68
2021/07/05 10:23:02;;;;;;;1.00;1.00;;;25.70;37.20;;;;;;10451521;28;20243;-68
2021/07/05 10:28:07;;;;;;;1.13;1.10;;;25.80;36.70;;;;;;10453046;28;20720;-68
2021/07/05 10:33:12;;;;;;;0.90;0.90;;;25.80;37.00;;;;;;10445461;28;20228;-68
2021/07/05 10:38:20;;;;;;;1.97;1.20;;;25.80;36.40;;;;;;10447515;28;20224;-68
2021/07/05 10:43:43;;;;;;;1.17;1.17;;;25.70;36.50;;;;;;10444275;28;20236;-68
2021/07/05 10:48:48;;;;;;;2.00;1.20;;;25.70;36.50;;;;;;10455680;28;20758;-68
2021/07/05 10:53:53;;;;;;;1.43;1.33;;;25.70;37.20;;;;;;10449966;28;20236;-69
2021/07/05 10:59:12;;;;;;;1.43;1.20;;;25.60;38.10;;;;;;10447301;28;20236;-68
2021/07/05 11:04:21;;;;;;;3.20;1.30;;;25.40;38.30;;;;;;10446391;28;20220;-68
2021/07/05 11:09:26;;;;;;;1.20;1.10;;;25.30;37.80;;;;;;10450359;28;20248;-68
2021/07/05 11:14:33;;;;;;;2.50;1.30;;;25.00;38.40;;;;;;10450735;28;20227;-68
2021/07/05 11:19:43;;;;;;;1.97;1.47;;;24.70;39.60;;;;;;10446447;28;20237;-68
2021/07/05 11:25:10;;;;;;;1.53;1.40;;;24.40;40.40;;;;;;10450081;28;20224;-68
2021/07/05 11:30:41;;;;;;;1.40;1.30;;;24.40;40.90;;;;;;10443341;28;20226;-68
2021/07/05 11:35:53;;;;;;;1.20;1.10;;;24.50;40.50;;;;;;10441791;28;20716;-68
2021/07/05 11:40:59;;;;;;;1.20;1.10;;;24.70;40.70;;;;;;10444398;28;20248;-68
2021/07/05 11:46:02;;;;;;;3.87;1.20;;;24.80;40.70;;;;;;10444413;28;20240;-69
2021/07/05 11:51:15;;;;;;;1.03;1.03;;;25.00;40.20;;;;;;10445416;28;20235;-68
2021/07/05 11:56:34;;;;;;;1.77;1.10;;;25.10;38.90;;;;;;10446324;28;20224;-68
2021/07/05 12:01:39;;;;;;;1.10;1.10;;;25.20;37.40;;;;;;10443602;28;20275;-68
2021/07/05 12:06:50;;;;;;;1.00;1.00;;;25.20;37.90;;;;;;10449843;28;20278;-68
2021/07/05 12:11:53;;;;;;;1.30;1.20;;;25.30;37.20;;;;;;10447063;28;20232;-68
2021/07/05 12:16:58;;;;;;;1.00;0.90;;;25.40;37.90;;;;;;10453105;28;20240;-68
2021/07/05 12:22:05;;;;;;;1.37;1.23;;;25.30;37.60;;;;;;10452440;28;20227;-68
2021/07/05 12:27:11;;;;;;;2.50;1.40;;;25.40;37.00;;;;;;10444861;28;20232;-68
2021/07/05 12:32:21;;;;;;;1.20;1.10;;;25.40;37.50;;;;;;10451931;28;20228;-68
2021/07/05 12:37:32;;;;;;;0.90;0.90;;;25.40;37.00;;;;;;10454302;28;20228;-68
2021/07/05 12:42:38;;;;;;;0.90;0.90;;;25.40;36.60;;;;;;10454434;28;20232;-68
2021/07/05 12:47:53;;;;;;;0.90;0.90;;;25.40;37.00;;;;;;10458984;28;20236;-68
2021/07/05 12:53:07;;;;;;;0.90;0.90;;;25.50;36.20;;;;;;10455056;28;20224;-68
2021/07/05 12:58:10;;;;;;;0.93;0.93;;;25.50;35.90;;;;;;10449800;28;20724;-68
2021/07/05 13:03:18;;;;;;;1.47;1.10;;;25.70;36.70;;;;;;10449529;28;20225;-68
2021/07/05 13:08:30;;;;;;;0.90;0.90;;;25.70;36.20;;;;;;10452688;28;20776;-68
2021/07/05 13:13:36;;;;;;;1.13;0.97;;;25.70;35.40;;;;;;10449399;28;20562;-68
2021/07/05 13:18:40;;;;;;;1.70;1.20;;;25.70;35.50;;;;;;10451564;28;20290;-68
2021/07/05 13:23:47;;;;;;;2.40;0.90;;;25.60;36.50;;;;;;10452811;28;20240;-68
2021/07/05 13:28:52;;;;;;;1.00;1.00;;;25.60;37.10;;;;;;10454011;28;20252;-68
2021/07/05 13:33:55;;;;;;;1.50;0.80;;;25.60;35.90;;;;;;10454192;28;20791;-68
2021/07/05 13:39:00;;;;;;;1.17;0.90;;;25.50;36.00;;;;;;10451806;28;20237;-68
2021/07/05 13:44:03;;;;;;;0.70;0.70;;;25.40;36.10;;;;;;10450316;28;20693;-68
2021/07/05 13:49:13;;;;;;;0.90;0.90;;;25.20;36.20;;;;;;10449940;28;20633;-68
2021/07/05 13:54:29;;;;;;;0.90;0.90;;;24.90;36.40;;;;;;10447595;28;20247;-68
2021/07/05 13:59:32;;;;;;;0.70;0.70;;;24.70;36.70;;;;;;10457213;28;20315;-68
2021/07/05 14:04:41;;;;;;;0.87;0.80;;;24.50;37.00;;;;;;10449162;28;21272;-68
2021/07/05 14:09:45;;;;;;;1.63;0.90;;;24.40;36.60;;;;;;10448742;28;20239;-68
2021/07/05 14:14:48;;;;;;;1.13;0.83;;;24.30;37.30;;;;;;10444576;28;20240;-68
2021/07/05 14:19:52;;;;;;;0.80;0.80;;;24.20;37.60;;;;;;10451836;28;20224;-68
2021/07/05 14:24:57;;;;;;;0.70;0.70;;;24.30;37.70;;;;;;10454093;28;20235;-68
2021/07/05 14:30:00;;;;;;;2.20;0.80;;;24.40;37.30;;;;;;10455159;28;20251;-68
2021/07/05 14:35:05;;;;;;;1.13;0.80;;;24.60;37.50;;;;;;10448020;28;20224;-69
2021/07/05 14:40:11;;;;;;;0.80;0.80;;;24.70;37.40;;;;;;10453242;28;20233;-68
2021/07/05 14:45:17;;;;;;;0.90;0.90;;;24.80;37.60;;;;;;10454172;28;20216;-68
2021/07/05 14:50:24;;;;;;;1.80;0.90;;;24.90;36.60;;;;;;10455959;28;20221;-68
2021/07/05 14:55:30;;;;;;;0.87;0.87;;;25.10;35.70;;;;;;10449870;28;20228;-68
2021/07/05 15:00:36;;;;;;;0.87;0.87;;;25.20;36.20;;;;;;10448199;28;20232;-68
2021/07/05 15:05:39;;;;;;;0.90;0.90;;;25.20;35.30;;;;;;10449388;28;20233;-68
2021/07/05 15:10:44;;;;;;;1.00;0.80;;;25.30;36.00;;;;;;10450181;28;20245;-68
2021/07/05 15:15:47;;;;;;;0.80;0.80;;;25.40;35.10;;;;;;10448670;28;20232;-69
2021/07/05 15:20:50;;;;;;;1.97;0.90;;;25.40;34.80;;;;;;10456600;28;20236;-68
2021/07/05 15:25:55;;;;;;;0.90;0.90;;;25.40;34.90;;;;;;10453546;28;20229;-68
2021/07/05 15:30:58;;;;;;;0.83;0.83;;;25.40;34.70;;;;;;10453878;28;20250;-68
2021/07/05 15:36:01;;;;;;;0.90;0.90;;;25.40;34.90;;;;;;10449744;28;20980;-68
2021/07/05 15:41:06;;;;;;;0.90;0.90;;;25.40;34.50;;;;;;10452852;28;20228;-68
2021/07/05 15:46:09;;;;;;;0.90;0.90;;;25.40;34.40;;;;;;10446238;28;20717;-68
2021/07/05 15:51:12;;;;;;;0.80;0.80;;;25.40;34.70;;;;;;10448123;28;20237;-68
2021/07/05 15:56:17;;;;;;;0.87;0.87;;;25.40;34.70;;;;;;10457250;28;20225;-68
2021/07/05 16:01:20;;;;;;;1.00;1.00;;;25.60;34.00;;;;;;10440836;28;20233;-68
2021/07/05 16:06:24;;;;;;;0.90;0.90;;;25.60;34.00;;;;;;10459981;28;20232;-68
2021/07/05 16:11:28;;;;;;;1.07;1.07;;;25.70;34.20;;;;;;10455108;28;20239;-68
2021/07/05 16:16:32;;;;;;;1.00;1.00;;;25.70;33.40;;;;;;10454584;28;20259;-68
2021/07/05 16:21:36;;;;;;;0.80;0.80;;;25.70;33.70;;;;;;10458485;28;20236;-68
2021/07/05 16:26:40;;;;;;;0.73;0.70;;;25.70;33.50;;;;;;10465827;28;20670;-68
2021/07/05 16:31:43;;;;;;;0.90;0.90;;;25.70;33.20;;;;;;10449129;28;20732;-68
2021/07/05 16:36:47;;;;;;;0.80;0.80;;;25.70;33.30;;;;;;10452012;28;20235;-68
2021/07/05 16:41:53;;;;;;;1.00;0.90;;;25.70;33.30;;;;;;10453427;28;20221;-68
2021/07/05 16:46:58;;;;;;;1.37;1.00;;;25.70;32.50;;;;;;10445677;28;20229;-68
2021/07/05 16:52:15;;;;;;;1.13;1.10;;;25.70;32.10;;;;;;10449266;28;20329;-68
2021/07/05 16:57:21;;;;;;;1.00;0.90;;;25.70;33.00;;;;;;10450285;28;20354;-68
2021/07/05 17:02:26;;;;;;;1.17;1.00;;;25.70;32.70;;;;;;10451066;28;20224;-68
2021/07/05 17:07:29;;;;;;;0.87;0.87;;;25.80;32.30;;;;;;10459723;28;20224;-68
2021/07/05 17:12:34;;;;;;;2.90;1.00;;;25.80;32.70;;;;;;10449332;28;20731;-68
2021/07/05 17:17:37;;;;;;;0.90;0.90;;;25.80;32.30;;;;;;10456155;28;20739;-68
2021/07/05 17:22:41;;;;;;;1.00;0.90;;;25.70;32.30;;;;;;10452936;28;20744;-68
2021/07/05 17:27:46;;;;;;;0.90;0.90;;;25.70;32.40;;;;;;10449873;28;20741;-68
2021/07/05 17:32:51;;;;;;;0.87;0.87;;;25.70;32.10;;;;;;10453221;28;20962;-68
2021/07/05 17:37:55;;;;;;;0.90;0.90;;;25.80;32.60;;;;;;10453613;28;20240;-68
2021/07/05 17:42:59;;;;;;;2.40;1.10;;;25.80;32.60;;;;;;10447152;28;20240;-68
2021/07/05 17:48:03;;;;;;;0.90;0.90;;;25.90;32.30;;;;;;10455067;28;20263;-68
2021/07/05 17:53:06;;;;;;;2.67;1.10;;;25.90;32.40;;;;;;10442079;28;20251;-68
2021/07/05 17:58:11;;;;;;;1.00;1.00;;;25.90;32.30;;;;;;10451169;28;20235;-68
2021/07/05 18:03:14;;;;;;;1.00;1.00;;;25.90;32.10;;;;;;10448019;28;20226;-68
2021/07/05 18:08:18;;;;;;;1.17;1.10;;;25.80;32.20;;;;;;10454207;28;20237;-68
2021/07/05 18:13:23;;;;;;;1.00;1.00;;;25.80;32.20;;;;;;10454407;28;20221;-68
2021/07/05 18:18:26;;;;;;;1.00;1.00;;;25.70;32.10;;;;;;10456476;28;20661;-68
2021/07/05 18:23:29;;;;;;;1.00;1.00;;;25.60;32.60;;;;;;10452652;28;20220;-68
2021/07/05 18:28:36;;;;;;;1.10;0.90;;;25.60;32.60;;;;;;10450773;28;20244;-68
2021/07/05 18:33:40;;;;;;;2.87;1.00;;;25.60;32.40;;;;;;10439692;28;20228;-68
2021/07/05 18:38:44;;;;;;;1.00;1.00;;;25.50;32.10;;;;;;10443628;28;20240;-68
2021/07/05 18:43:48;;;;;;;1.10;1.10;;;25.50;32.40;;;;;;10447527;28;20224;-68
2021/07/05 18:48:56;;;;;;;1.00;1.00;;;25.40;32.20;;;;;;10448506;28;20286;-68
2021/07/05 18:53:59;;;;;;;1.07;1.07;;;25.30;32.50;;;;;;10446688;28;20224;-68
2021/07/05 18:59:04;;;;;;;1.13;1.07;;;25.20;32.60;;;;;;10453003;28;20229;-69
2021/07/05 19:04:07;;;;;;;1.00;1.00;;;25.20;32.70;;;;;;10452692;28;20236;-68
2021/07/05 19:09:11;;;;;;;0.80;0.80;;;25.20;32.90;;;;;;10449180;28;20237;-68
2021/07/05 19:14:15;;;;;;;1.20;1.10;;;25.30;33.10;;;;;;10447399;28;20229;-68
2021/07/05 19:19:20;;;;;;;1.07;1.07;;;25.20;33.00;;;;;;10452659;28;20240;-68
2021/07/05 19:24:23;;;;;;;1.10;1.10;;;25.20;33.00;;;;;;10446089;28;20228;-68
2021/07/05 19:29:27;;;;;;;1.43;0.90;;;25.10;33.20;;;;;;10443871;28;20961;-68
2021/07/05 19:34:31;;;;;;;1.10;1.10;;;25.10;33.30;;;;;;10444994;28;20716;-68
2021/07/05 19:39:35;;;;;;;1.20;1.10;;;25.00;33.30;;;;;;10454221;28;20228;-68
2021/07/05 19:44:40;;;;;;;3.97;1.30;;;24.90;33.30;;;;;;10455596;28;20231;-68
2021/07/05 19:49:43;;;;;;;1.40;1.30;;;24.80;33.30;;;;;;10449133;28;20786;-68
2021/07/05 19:54:46;;;;;;;1.70;1.53;;;24.60;33.10;;;;;;10456150;28;20603;-68
2021/07/05 19:59:51;;;;;;;2.03;1.70;;;24.30;33.70;;;;;;10453002;28;20236;-68
2021/07/05 20:04:54;;;;;;;2.20;2.00;;;24.20;34.10;;;;;;10457733;28;20228;-68
2021/07/05 20:09:57;;;;;;;1.70;1.60;;;24.10;34.30;;;;;;10454861;28;20635;-68
2021/07/05 20:15:02;;;;;;;1.60;1.50;;;24.10;34.40;;;;;;10461151;28;20224;-68
2021/07/05 20:20:07;;;;;;;1.60;1.50;;;24.10;34.60;;;;;;10455065;28;20259;-68
2021/07/05 20:25:11;;;;;;;1.63;1.53;;;24.10;34.60;;;;;;10451889;28;20598;-68
2021/07/05 20:30:17;;;;;;;1.67;1.50;;;24.00;34.60;;;;;;10453891;28;20708;-68
2021/07/05 20:35:20;;;;;;;1.57;1.47;;;24.00;34.80;;;;;;10451950;28;20216;-68
2021/07/05 20:40:24;;;;;;;1.80;1.50;;;24.00;34.60;;;;;;10456944;28;20228;-68
2021/07/05 20:45:30;;;;;;;1.77;1.67;;;24.00;34.80;;;;;;10451859;28;20232;-68
2021/07/05 20:50:33;;;;;;;1.43;1.33;;;23.90;34.90;;;;;;10454655;28;20229;-68
2021/07/05 20:55:37;;;;;;;1.70;1.60;;;23.90;34.70;;;;;;10449582;28;20229;-68
2021/07/05 21:00:42;;;;;;;3.23;2.93;;;23.80;34.80;;;;;;10458145;28;20233;-68
2021/07/05 21:05:45;;;;;;;2.50;2.30;;;23.60;34.70;;;;;;10450171;28;20237;-68
2021/07/05 21:10:48;;;;;;;1.90;1.80;;;23.40;34.50;;;;;;10452341;28;20241;-68
2021/07/05 21:15:52;;;;;;;2.00;1.90;;;23.20;35.00;;;;;;10455489;28;20224;-68
2021/07/05 21:20:56;;;;;;;2.17;1.90;;;23.10;35.50;;;;;;10449074;28;20233;-68
2021/07/05 21:26:00;;;;;;;2.47;1.80;;;23.00;35.40;;;;;;10456894;28;20241;-68
2021/07/05 21:31:04;;;;;;;1.70;1.60;;;22.90;35.40;;;;;;10449592;28;20229;-68
2021/07/05 21:36:08;;;;;;;4.03;1.50;;;22.80;35.50;;;;;;10453450;28;20224;-68
2021/07/05 21:41:12;;;;;;;1.50;1.40;;;22.70;35.50;;;;;;10452959;28;20241;-68
2021/07/05 21:46:17;;;;;;;1.83;1.70;;;22.70;35.70;;;;;;10453607;28;20223;-68
2021/07/05 21:51:20;;;;;;;2.23;2.03;;;22.60;36.00;;;;;;10447349;28;20885;-68
2021/07/05 21:56:23;;;;;;;4.23;2.10;;;22.60;35.90;;;;;;10454129;28;20232;-68
2021/07/05 22:01:28;;;;;;;2.77;1.83;;;22.60;35.90;;;;;;10443307;28;20570;-68
2021/07/05 22:06:31;;;;;;;1.80;1.60;;;22.60;36.20;;;;;;10441887;28;20228;-68
2021/07/05 22:11:34;;;;;;;1.87;1.77;;;22.50;35.90;;;;;;10436995;28;20229;-68
2021/07/05 22:16:39;;;;;;;2.37;1.77;;;22.50;35.90;;;;;;10441101;28;20240;-68
2021/07/05 22:21:43;;;;;;;1.77;1.67;;;22.50;37.10;;;;;;10444147;28;20881;-68
2021/07/05 22:26:46;;;;;;;1.90;1.80;;;22.40;35.90;;;;;;10446796;28;20229;-68
2021/07/05 22:31:50;;;;;;;1.73;1.63;;;22.30;35.90;;;;;;10455336;28;20743;-68
2021/07/05 22:36:54;;;;;;;1.93;1.70;;;22.10;36.20;;;;;;10453192;28;20850;-68
2021/07/05 22:41:57;;;;;;;2.00;1.80;;;22.00;36.20;;;;;;10451833;28;20239;-68
2021/07/05 22:47:01;;;;;;;1.70;1.60;;;21.90;36.50;;;;;;10457291;28;20239;-68
2021/07/05 22:52:05;;;;;;;1.30;1.30;;;21.80;36.90;;;;;;10448262;28;20607;-68
2021/07/05 22:57:08;;;;;;;1.50;1.40;;;21.80;36.70;;;;;;10446994;28;20237;-68
2021/07/05 23:02:13;;;;;;;3.53;1.47;;;21.80;36.70;;;;;;10450174;28;20232;-68
2021/07/05 23:07:16;;;;;;;1.60;1.47;;;21.70;36.80;;;;;;10448433;28;20236;-68
2021/07/05 23:12:19;;;;;;;1.30;1.20;;;21.70;36.80;;;;;;10447046;28;20233;-68
2021/07/05 23:17:24;;;;;;;1.70;1.60;;;21.60;36.70;;;;;;10448245;28;20248;-68
2021/07/05 23:22:27;;;;;;;2.10;1.40;;;21.40;37.60;;;;;;10449756;28;21086;-68
2021/07/05 23:27:31;;;;;;;1.50;1.40;;;21.20;37.40;;;;;;10450563;28;20329;-68
2021/07/05 23:32:35;;;;;;;4.30;1.60;;;21.10;37.50;;;;;;10453141;28;20232;-68
2021/07/05 23:37:39;;;;;;;1.57;1.47;;;21.00;37.60;;;;;;10452324;28;20243;-68
2021/07/05 23:42:42;;;;;;;1.47;1.37;;;20.90;37.30;;;;;;10448528;28;20229;-68
2021/07/05 23:47:47;;;;;;;1.93;1.43;;;20.90;37.60;;;;;;10453082;28;20968;-68
2021/07/05 23:52:51;;;;;;;1.60;1.50;;;20.90;38.30;;;;;;10448068;28;20972;-68
2021/07/05 23:57:55;;;;;;;1.80;1.70;;;20.90;37.80;;;;;;10450808;28;20239;-67
